sensor_id;sensor_type;location;lat;lon;timestamp;pressure;altitude;pressure_sealevel;temperature;humidity
48035;BME280;33812;46.480;6.834;2023-02-28T00:01:34;93596.50;;;21.20;31.51
48035;BME280;33812;46.480;6.834;2023-02-28T00:05:36;93604.81;;;21.20;31.60
48035;BME280;33812;46.480;6.834;2023-02-28T00:09:38;93594.66;;;21.17;31.52
48035;BME280;33812;46.480;6.834;2023-02-28T00:13:41;93599.72;;;21.19;31.47
48035;BME280;33812;46.480;6.834;2023-02-28T00:17:46;93601.72;;;21.18;31.41
48035;BME280;33812;46.480;6.834;2023-02-28T00:21:48;93598.28;;;21.14;31.36
48035;BME280;33812;46.480;6.834;2023-02-28T00:25:50;93591.53;;;21.15;31.38
48035;BME280;33812;46.480;6.834;2023-02-28T00:29:52;93591.44;;;21.19;31.39
48035;BME280;33812;46.480;6.834;2023-02-28T00:33:57;93604.91;;;21.17;31.31
48035;BME280;33812;46.480;6.834;2023-02-28T00:38:00;93598.16;;;21.18;31.15
48035;BME280;33812;46.480;6.834;2023-02-28T00:42:03;93602.94;;;21.17;31.21
48035;BME280;33812;46.480;6.834;2023-02-28T00:46:05;93599.50;;;21.13;31.33
48035;BME280;33812;46.480;6.834;2023-02-28T00:50:10;93598.28;;;21.14;31.09
48035;BME280;33812;46.480;6.834;2023-02-28T00:54:12;93602.59;;;21.15;31.09
48035;BME280;33812;46.480;6.834;2023-02-28T00:58:13;93609.31;;;21.14;31.10
48035;BME280;33812;46.480;6.834;2023-02-28T01:02:15;93608.56;;;21.13;31.20
48035;BME280;33812;46.480;6.834;2023-02-28T01:06:19;93609.78;;;21.12;30.83
48035;BME280;33812;46.480;6.834;2023-02-28T01:10:24;93606.56;;;21.14;31.21
48035;BME280;33812;46.480;6.834;2023-02-28T01:14:26;93599.06;;;21.14;31.07
48035;BME280;33812;46.480;6.834;2023-02-28T01:18:28;93603.78;;;21.14;31.02
48035;BME280;33812;46.480;6.834;2023-02-28T01:22:31;93593.97;;;21.13;31.02
48035;BME280;33812;46.480;6.834;2023-02-28T01:26:33;93597.06;;;21.15;30.94
48035;BME280;33812;46.480;6.834;2023-02-28T01:30:34;93593.19;;;21.12;30.94
48035;BME280;33812;46.480;6.834;2023-02-28T01:34:36;93595.63;;;21.10;31.07
48035;BME280;33812;46.480;6.834;2023-02-28T01:38:40;93593.97;;;21.13;30.89
48035;BME280;33812;46.480;6.834;2023-02-28T01:42:41;93596.06;;;21.09;30.78
48035;BME280;33812;46.480;6.834;2023-02-28T01:46:43;93597.63;;;21.10;30.93
48035;BME280;33812;46.480;6.834;2023-02-28T01:50:46;93601.94;;;21.11;31.03
48035;BME280;33812;46.480;6.834;2023-02-28T01:54:53;93596.84;;;21.09;30.79
48035;BME280;33812;46.480;6.834;2023-02-28T01:58:58;93597.28;;;21.08;30.93
48035;BME280;33812;46.480;6.834;2023-02-28T02:03:06;93593.28;;;21.09;30.76
48035;BME280;33812;46.480;6.834;2023-02-28T02:07:09;93598.06;;;21.08;30.79
48035;BME280;33812;46.480;6.834;2023-02-28T02:11:13;93600.06;;;21.08;30.65
48035;BME280;33812;46.480;6.834;2023-02-28T02:15:22;93594.97;;;21.06;30.80
48035;BME280;33812;46.480;6.834;2023-02-28T02:29:07;93591.41;;;21.06;30.58
48035;BME280;33812;46.480;6.834;2023-02-28T02:37:53;93591.09;;;21.04;30.58
48035;BME280;33812;46.480;6.834;2023-02-28T02:41:59;93584.81;;;21.03;30.38
48035;BME280;33812;46.480;6.834;2023-02-28T02:46:06;93587.88;;;21.05;30.46
48035;BME280;33812;46.480;6.834;2023-02-28T02:50:14;93591.09;;;21.04;30.68
48035;BME280;33812;46.480;6.834;2023-02-28T02:54:23;93596.59;;;21.04;30.48
48035;BME280;33812;46.480;6.834;2023-02-28T02:58:32;93595.84;;;21.03;30.48
48035;BME280;33812;46.480;6.834;2023-02-28T03:02:36;93596.28;;;21.01;30.71
48035;BME280;33812;46.480;6.834;2023-02-28T03:06:39;93591.53;;;21.02;30.56
48035;BME280;33812;46.480;6.834;2023-02-28T03:10:44;93591.09;;;21.04;30.34
48035;BME280;33812;46.480;6.834;2023-02-28T03:14:56;93592.31;;;21.02;30.44
48035;BME280;33812;46.480;6.834;2023-02-28T03:19:07;93588.78;;;21.02;30.40
48035;BME280;33812;46.480;6.834;2023-02-28T03:23:16;93587.97;;;21.01;30.49
48035;BME280;33812;46.480;6.834;2023-02-28T03:27:25;93585.66;;;21.00;30.32
48035;BME280;33812;46.480;6.834;2023-02-28T03:31:32;93582.47;;;21.01;30.27
48035;BME280;33812;46.480;6.834;2023-02-28T03:35:40;93577.38;;;21.00;30.24
48035;BME280;33812;46.480;6.834;2023-02-28T03:39:49;93578.16;;;21.00;30.28
48035;BME280;33812;46.480;6.834;2023-02-28T03:43:58;93580.59;;;20.98;30.22
48035;BME280;33812;46.480;6.834;2023-02-28T03:48:05;93590.44;;;20.99;30.39
48035;BME280;33812;46.480;6.834;2023-02-28T03:52:10;93588.88;;;20.98;30.22
48035;BME280;33812;46.480;6.834;2023-02-28T03:56:16;93590.44;;;20.99;30.49
48035;BME280;33812;46.480;6.834;2023-02-28T04:00:25;93601.03;;;21.01;30.25
48035;BME280;33812;46.480;6.834;2023-02-28T04:04:29;93589.66;;;20.99;30.47
48035;BME280;33812;46.480;6.834;2023-02-28T04:08:31;93590.88;;;20.98;30.50
48035;BME280;33812;46.480;6.834;2023-02-28T04:12:33;93589.66;;;20.99;30.41
48035;BME280;33812;46.480;6.834;2023-02-28T04:16:38;93591.63;;;20.98;30.44
48035;BME280;33812;46.480;6.834;2023-02-28T04:20:42;93588.88;;;20.98;30.17
48035;BME280;33812;46.480;6.834;2023-02-28T04:24:44;93594.84;;;20.97;30.43
48035;BME280;33812;46.480;6.834;2023-02-28T04:28:46;93598.38;;;20.97;30.05
48035;BME280;33812;46.480;6.834;2023-02-28T04:32:49;93601.16;;;20.97;30.00
48035;BME280;33812;46.480;6.834;2023-02-28T04:36:51;93598.38;;;20.97;30.04
48035;BME280;33812;46.480;6.834;2023-02-28T04:40:57;93602.34;;;20.96;30.06
48035;BME280;33812;46.480;6.834;2023-02-28T04:44:58;93602.03;;;20.94;30.19
48035;BME280;33812;46.480;6.834;2023-02-28T04:49:01;93590.63;;;20.92;30.24
48035;BME280;33812;46.480;6.834;2023-02-28T04:53:03;93596.06;;;20.96;29.82
48035;BME280;33812;46.480;6.834;2023-02-28T04:57:05;93604.44;;;20.92;30.15
48035;BME280;33812;46.480;6.834;2023-02-28T05:01:16;93606.78;;;20.94;30.02
48035;BME280;33812;46.480;6.834;2023-02-28T05:05:20;93614.25;;;20.93;29.92
48035;BME280;33812;46.480;6.834;2023-02-28T05:09:22;93621.78;;;20.93;29.81
48035;BME280;33812;46.480;6.834;2023-02-28T05:13:24;93622.22;;;20.91;29.83
48035;BME280;33812;46.480;6.834;2023-02-28T05:17:26;93623.78;;;20.92;30.04
48035;BME280;33812;46.480;6.834;2023-02-28T05:21:31;93623.00;;;20.92;29.61
48035;BME280;33812;46.480;6.834;2023-02-28T05:25:33;93622.22;;;20.91;29.62
48035;BME280;33812;46.480;6.834;2023-02-28T05:29:36;93619.44;;;20.91;30.03
48035;BME280;33812;46.480;6.834;2023-02-28T05:33:41;93627.72;;;20.91;29.81
48035;BME280;33812;46.480;6.834;2023-02-28T05:37:45;93622.22;;;20.91;30.35
48035;BME280;33812;46.480;6.834;2023-02-28T05:41:46;93628.97;;;20.90;30.50
48035;BME280;33812;46.480;6.834;2023-02-28T05:45:48;93630.19;;;20.89;30.68
48035;BME280;33812;46.480;6.834;2023-02-28T05:49:51;93628.06;;;20.93;31.07
48035;BME280;33812;46.480;6.834;2023-02-28T05:53:54;93636.81;;;20.92;31.15
48035;BME280;33812;46.480;6.834;2023-02-28T05:57:57;93630.84;;;20.93;30.71
48035;BME280;33812;46.480;6.834;2023-02-28T06:01:59;93634.81;;;20.92;31.26
48035;BME280;33812;46.480;6.834;2023-02-28T06:06:01;93626.13;;;20.94;31.10
48035;BME280;33812;46.480;6.834;2023-02-28T06:10:07;93626.91;;;20.94;30.52
48035;BME280;33812;46.480;6.834;2023-02-28T06:14:14;93624.56;;;20.93;31.48
48035;BME280;33812;46.480;6.834;2023-02-28T06:18:16;93638.25;;;20.96;31.38
48035;BME280;33812;46.480;6.834;2023-02-28T06:22:18;93652.41;;;20.98;32.03
48035;BME280;33812;46.480;6.834;2023-02-28T06:26:22;93633.59;;;20.93;31.85
48035;BME280;33812;46.480;6.834;2023-02-28T06:30:24;93646.66;;;20.93;31.60
48035;BME280;33812;46.480;6.834;2023-02-28T06:34:27;93652.28;;;20.89;31.45
48035;BME280;33812;46.480;6.834;2023-02-28T06:38:28;93666.50;;;20.87;30.97
48035;BME280;33812;46.480;6.834;2023-02-28T06:42:33;93669.72;;;20.86;30.46
48035;BME280;33812;46.480;6.834;2023-02-28T06:46:34;93672.03;;;20.87;30.89
48035;BME280;33812;46.480;6.834;2023-02-28T06:50:36;93670.06;;;20.88;30.90
48035;BME280;33812;46.480;6.834;2023-02-28T06:54:38;93678.88;;;20.83;30.55
48035;BME280;33812;46.480;6.834;2023-02-28T06:58:42;93673.00;;;20.81;30.76
48035;BME280;33812;46.480;6.834;2023-02-28T07:02:46;93675.34;;;20.82;30.36
48035;BME280;33812;46.480;6.834;2023-02-28T07:06:48;93681.63;;;20.83;30.21
48035;BME280;33812;46.480;6.834;2023-02-28T07:10:56;93677.34;;;20.82;30.12
48035;BME280;33812;46.480;6.834;2023-02-28T07:15:00;93672.34;;;20.76;30.09
48035;BME280;33812;46.480;6.834;2023-02-28T07:19:04;93684.84;;;20.81;30.33
48035;BME280;33812;46.480;6.834;2023-02-28T07:23:05;93675.03;;;20.80;30.63
48035;BME280;33812;46.480;6.834;2023-02-28T07:27:08;93690.63;;;20.87;31.03
48035;BME280;33812;46.480;6.834;2023-02-28T07:31:14;93692.69;;;20.83;30.80
48035;BME280;33812;46.480;6.834;2023-02-28T07:35:16;93688.72;;;20.84;30.85
48035;BME280;33812;46.480;6.834;2023-02-28T07:39:19;93695.44;;;20.83;31.43
48035;BME280;33812;46.480;6.834;2023-02-28T07:43:22;93686.81;;;20.81;31.17
48035;BME280;33812;46.480;6.834;2023-02-28T07:47:26;93695.00;;;20.84;31.00
48035;BME280;33812;46.480;6.834;2023-02-28T07:51:27;93694.25;;;20.84;31.16
48035;BME280;33812;46.480;6.834;2023-02-28T07:55:30;93682.88;;;20.82;31.27
48035;BME280;33812;46.480;6.834;2023-02-28T07:59:31;93687.16;;;20.83;31.22
48035;BME280;33812;46.480;6.834;2023-02-28T08:03:35;93692.25;;;20.84;30.96
48035;BME280;33812;46.480;6.834;2023-02-28T08:07:40;93686.28;;;20.86;31.22
48035;BME280;33812;46.480;6.834;2023-02-28T08:11:42;93691.38;;;20.87;31.34
48035;BME280;33812;46.480;6.834;2023-02-28T08:15:43;93693.38;;;20.87;31.29
48035;BME280;33812;46.480;6.834;2023-02-28T08:19:47;93700.09;;;20.86;31.13
48035;BME280;33812;46.480;6.834;2023-02-28T08:23:51;93682.53;;;20.80;31.29
48035;BME280;33812;46.480;6.834;2023-02-28T08:27:55;93694.34;;;20.80;31.25
48035;BME280;33812;46.480;6.834;2023-02-28T08:31:57;93709.94;;;20.87;31.67
48035;BME280;33812;46.480;6.834;2023-02-28T08:36:03;93697.88;;;20.81;31.90
48035;BME280;33812;46.480;6.834;2023-02-28T08:40:06;93699.44;;;20.82;31.57
48035;BME280;33812;46.480;6.834;2023-02-28T08:44:08;93700.19;;;20.82;32.00
48035;BME280;33812;46.480;6.834;2023-02-28T08:48:10;93708.47;;;20.82;32.28
48035;BME280;33812;46.480;6.834;2023-02-28T08:52:15;93707.72;;;20.82;32.14
48035;BME280;33812;46.480;6.834;2023-02-28T08:56:18;93710.03;;;20.83;31.58
48035;BME280;33812;46.480;6.834;2023-02-28T09:00:21;93713.59;;;20.84;31.84
48035;BME280;33812;46.480;6.834;2023-02-28T09:04:24;93723.75;;;20.87;32.02
48035;BME280;33812;46.480;6.834;2023-02-28T09:08:28;93720.56;;;20.88;31.54
48035;BME280;33812;46.480;6.834;2023-02-28T09:12:33;93721.00;;;20.87;31.28
48035;BME280;33812;46.480;6.834;2023-02-28T09:16:44;93710.81;;;20.84;31.22
48035;BME280;33812;46.480;6.834;2023-02-28T09:20:48;93714.69;;;20.86;31.10
48035;BME280;33812;46.480;6.834;2023-02-28T09:24:52;93720.53;;;19.96;26.39
48035;BME280;33812;46.480;6.834;2023-02-28T09:28:54;93717.09;;;20.71;31.40
48035;BME280;33812;46.480;6.834;2023-02-28T09:32:56;93720.56;;;20.88;31.76
48035;BME280;33812;46.480;6.834;2023-02-28T09:36:58;93712.53;;;20.94;31.86
48035;BME280;33812;46.480;6.834;2023-02-28T09:41:04;93713.28;;;20.95;31.69
48035;BME280;33812;46.480;6.834;2023-02-28T09:45:19;93712.44;;;20.98;31.65
48035;BME280;33812;46.480;6.834;2023-02-28T09:49:25;93709.25;;;20.99;32.23
48035;BME280;33812;46.480;6.834;2023-02-28T09:53:32;93715.06;;;21.01;32.34
48035;BME280;33812;46.480;6.834;2023-02-28T09:57:38;93716.66;;;21.02;32.04
48035;BME280;33812;46.480;6.834;2023-02-28T10:01:48;93725.72;;;21.03;32.07
48035;BME280;33812;46.480;6.834;2023-02-28T10:05:59;93720.50;;;21.05;32.33
48035;BME280;33812;46.480;6.834;2023-02-28T10:10:13;93724.50;;;21.04;32.15
48035;BME280;33812;46.480;6.834;2023-02-28T10:14:23;93733.03;;;21.10;32.34
48035;BME280;33812;46.480;6.834;2023-02-28T10:18:41;93733.47;;;21.08;32.32
48035;BME280;33812;46.480;6.834;2023-02-28T10:22:52;93735.00;;;21.09;32.47
48035;BME280;33812;46.480;6.834;2023-02-28T10:26:59;93744.84;;;21.10;32.17
48035;BME280;33812;46.480;6.834;2023-02-28T10:31:05;93742.84;;;21.11;32.63
48035;BME280;33812;46.480;6.834;2023-02-28T10:35:20;93746.75;;;21.13;32.67
48035;BME280;33812;46.480;6.834;2023-02-28T10:39:37;93744.72;;;21.14;32.50
48035;BME280;33812;46.480;6.834;2023-02-28T10:43:41;93747.84;;;21.16;32.44
48035;BME280;33812;46.480;6.834;2023-02-28T10:47:55;93745.06;;;21.16;32.37
48035;BME280;33812;46.480;6.834;2023-02-28T10:51:58;93751.38;;;21.17;32.45
48035;BME280;33812;46.480;6.834;2023-02-28T10:56:03;93747.84;;;21.16;32.32
48035;BME280;33812;46.480;6.834;2023-02-28T11:00:14;93746.66;;;21.17;32.45
48035;BME280;33812;46.480;6.834;2023-02-28T11:04:23;93749.41;;;21.17;32.01
48035;BME280;33812;46.480;6.834;2023-02-28T11:08:33;93745.41;;;21.18;32.67
48035;BME280;33812;46.480;6.834;2023-02-28T11:12:37;93748.53;;;21.20;32.57
48035;BME280;33812;46.480;6.834;2023-02-28T11:16:41;93752.81;;;21.21;32.75
48035;BME280;33812;46.480;6.834;2023-02-28T11:20:49;93749.28;;;21.21;32.36
48035;BME280;33812;46.480;6.834;2023-02-28T11:24:53;93750.06;;;21.21;32.51
48035;BME280;33812;46.480;6.834;2023-02-28T11:29:08;93746.84;;;21.23;32.41
48035;BME280;33812;46.480;6.834;2023-02-28T11:33:37;93740.97;;;21.21;32.48
48035;BME280;33812;46.480;6.834;2023-02-28T11:37:43;93735.78;;;21.23;32.51
48035;BME280;33812;46.480;6.834;2023-02-28T11:42:00;93728.28;;;21.23;32.83
48035;BME280;33812;46.480;6.834;2023-02-28T11:46:16;93734.59;;;21.24;33.14
48035;BME280;33812;46.480;6.834;2023-02-28T11:50:38;93733.38;;;21.25;32.72
48035;BME280;33812;46.480;6.834;2023-02-28T11:55:01;93731.06;;;21.23;32.72
48035;BME280;33812;46.480;6.834;2023-02-28T11:59:28;93734.16;;;21.25;32.67
48035;BME280;33812;46.480;6.834;2023-02-28T12:03:39;93731.84;;;21.24;32.48
48035;BME280;33812;46.480;6.834;2023-02-28T12:07:53;93735.69;;;21.26;32.91
48035;BME280;33812;46.480;6.834;2023-02-28T12:12:03;93727.41;;;21.26;32.82
48035;BME280;33812;46.480;6.834;2023-02-28T12:16:27;93728.97;;;21.28;32.55
48035;BME280;33812;46.480;6.834;2023-02-28T12:20:35;93727.06;;;21.24;32.64
48035;BME280;33812;46.480;6.834;2023-02-28T12:24:58;93721.53;;;21.24;31.87
48035;BME280;33812;46.480;6.834;2023-02-28T12:29:12;93724.31;;;21.24;32.09
48035;BME280;33812;46.480;6.834;2023-02-28T12:33:18;93720.69;;;21.28;33.02
48035;BME280;33812;46.480;6.834;2023-02-28T12:37:27;93712.38;;;21.28;33.38
48035;BME280;33812;46.480;6.834;2023-02-28T12:41:37;93713.03;;;21.32;33.31
48035;BME280;33812;46.480;6.834;2023-02-28T12:45:45;93715.81;;;21.32;33.29
48035;BME280;33812;46.480;6.834;2023-02-28T12:49:51;93708.75;;;21.31;33.42
48035;BME280;33812;46.480;6.834;2023-02-28T12:54:07;93706.31;;;21.33;33.25
48035;BME280;33812;46.480;6.834;2023-02-28T12:58:15;93705.09;;;21.34;33.05
48035;BME280;33812;46.480;6.834;2023-02-28T13:02:41;93703.09;;;21.34;32.66
48035;BME280;33812;46.480;6.834;2023-02-28T13:11:25;93699.66;;;21.17;28.88
48035;BME280;33812;46.480;6.834;2023-02-28T13:15:29;93706.06;;;21.27;32.63
48035;BME280;33812;46.480;6.834;2023-02-28T13:19:38;93693.78;;;21.28;31.52
48035;BME280;33812;46.480;6.834;2023-02-28T13:24:00;93690.47;;;21.33;31.89
48035;BME280;33812;46.480;6.834;2023-02-28T13:28:03;93695.16;;;21.36;31.96
48035;BME280;33812;46.480;6.834;2023-02-28T13:32:34;93697.56;;;21.34;32.12
48035;BME280;33812;46.480;6.834;2023-02-28T13:36:38;93696.00;;;21.33;31.72
48035;BME280;33812;46.480;6.834;2023-02-28T13:40:39;93698.00;;;21.33;31.88
48035;BME280;33812;46.480;6.834;2023-02-28T13:49:19;93689.72;;;21.33;31.91
48035;BME280;33812;46.480;6.834;2023-02-28T13:53:56;93696.44;;;21.32;31.81
48035;BME280;33812;46.480;6.834;2023-02-28T13:58:26;93697.69;;;21.31;31.87
48035;BME280;33812;46.480;6.834;2023-02-28T14:03:02;93694.56;;;21.29;31.80
48035;BME280;33812;46.480;6.834;2023-02-28T14:07:16;93699.31;;;21.28;31.69
48035;BME280;33812;46.480;6.834;2023-02-28T14:11:30;93702.53;;;21.26;31.81
48035;BME280;33812;46.480;6.834;2023-02-28T14:15:54;93708.06;;;21.26;31.83
48035;BME280;33812;46.480;6.834;2023-02-28T14:19:57;93695.13;;;21.23;31.47
48035;BME280;33812;46.480;6.834;2023-02-28T14:24:25;93702.19;;;21.24;31.67
48035;BME280;33812;46.480;6.834;2023-02-28T14:28:44;93707.72;;;21.24;31.81
48035;BME280;33812;46.480;6.834;2023-02-28T14:32:54;93707.28;;;21.26;31.83
48035;BME280;33812;46.480;6.834;2023-02-28T14:37:02;93698.22;;;21.25;31.72
48035;BME280;33812;46.480;6.834;2023-02-28T14:41:12;93697.88;;;21.23;31.73
48035;BME280;33812;46.480;6.834;2023-02-28T14:45:20;93694.34;;;21.23;31.25
48035;BME280;33812;46.480;6.834;2023-02-28T14:49:26;93691.69;;;21.19;31.14
48035;BME280;33812;46.480;6.834;2023-02-28T14:53:30;93708.94;;;21.23;31.20
48035;BME280;33812;46.480;6.834;2023-02-28T14:57:40;93706.19;;;21.23;31.23
48035;BME280;33812;46.480;6.834;2023-02-28T15:01:45;93699.88;;;21.23;31.24
48035;BME280;33812;46.480;6.834;2023-02-28T15:05:55;93697.56;;;21.21;30.97
48035;BME280;33812;46.480;6.834;2023-02-28T15:10:13;93694.78;;;21.21;30.87
48035;BME280;33812;46.480;6.834;2023-02-28T15:14:17;93699.88;;;21.23;30.73
48035;BME280;33812;46.480;6.834;2023-02-28T15:18:29;93694.34;;;21.23;30.90
48035;BME280;33812;46.480;6.834;2023-02-28T15:22:36;93696.34;;;21.22;30.86
48035;BME280;33812;46.480;6.834;2023-02-28T15:26:42;93698.00;;;21.20;30.82
48035;BME280;33812;46.480;6.834;2023-02-28T15:30:56;93694.00;;;21.21;30.44
48035;BME280;33812;46.480;6.834;2023-02-28T15:35:18;93694.78;;;21.21;30.75
48035;BME280;33812;46.480;6.834;2023-02-28T15:39:22;93697.22;;;21.19;30.62
48035;BME280;33812;46.480;6.834;2023-02-28T15:43:26;93699.53;;;21.21;30.99
48035;BME280;33812;46.480;6.834;2023-02-28T15:47:29;93697.22;;;21.19;30.31
48035;BME280;33812;46.480;6.834;2023-02-28T15:51:36;93692.47;;;21.20;30.29
48035;BME280;33812;46.480;6.834;2023-02-28T15:55:38;93685.50;;;21.15;30.43
48035;BME280;33812;46.480;6.834;2023-02-28T15:59:48;93698.44;;;21.18;30.62
48035;BME280;33812;46.480;6.834;2023-02-28T16:03:53;93695.66;;;21.18;30.27
48035;BME280;33812;46.480;6.834;2023-02-28T16:07:57;93700.84;;;21.16;30.24
48035;BME280;33812;46.480;6.834;2023-02-28T16:12:01;93712.25;;;21.18;30.47
48035;BME280;33812;46.480;6.834;2023-02-28T16:16:04;93713.03;;;21.19;30.32
48035;BME280;33812;46.480;6.834;2023-02-28T16:20:12;93719.31;;;21.19;29.97
48035;BME280;33812;46.480;6.834;2023-02-28T16:24:16;93717.78;;;21.18;30.05
48035;BME280;33812;46.480;6.834;2023-02-28T16:28:20;93724.84;;;21.19;30.81
48035;BME280;33812;46.480;6.834;2023-02-28T16:32:23;93736.69;;;21.20;30.70
48035;BME280;33812;46.480;6.834;2023-02-28T16:36:24;93735.91;;;21.19;30.57
48035;BME280;33812;46.480;6.834;2023-02-28T16:40:29;93736.34;;;21.18;30.91
48035;BME280;33812;46.480;6.834;2023-02-28T16:44:35;93743.88;;;21.17;30.89
48035;BME280;33812;46.480;6.834;2023-02-28T16:48:37;93742.31;;;21.16;30.94
48035;BME280;33812;46.480;6.834;2023-02-28T16:52:39;93745.84;;;21.17;31.05
48035;BME280;33812;46.480;6.834;2023-02-28T16:56:44;93741.13;;;21.17;30.86
48035;BME280;33812;46.480;6.834;2023-02-28T17:00:46;93749.41;;;21.17;31.62
48035;BME280;33812;46.480;6.834;2023-02-28T17:04:48;93752.47;;;21.19;31.79
48035;BME280;33812;46.480;6.834;2023-02-28T17:08:50;93752.16;;;21.17;31.86
48035;BME280;33812;46.480;6.834;2023-02-28T17:12:54;93769.94;;;21.16;32.24
48035;BME280;33812;46.480;6.834;2023-02-28T17:16:55;93764.06;;;21.14;32.05
48035;BME280;33812;46.480;6.834;2023-02-28T17:20:57;93768.41;;;21.15;31.52
48035;BME280;33812;46.480;6.834;2023-02-28T17:24:59;93768.41;;;21.15;32.01
48035;BME280;33812;46.480;6.834;2023-02-28T17:29:02;93772.72;;;21.16;31.81
48035;BME280;33812;46.480;6.834;2023-02-28T17:33:04;93789.19;;;21.20;32.66
48035;BME280;33812;46.480;6.834;2023-02-28T17:37:07;93780.47;;;21.21;32.79
48035;BME280;33812;46.480;6.834;2023-02-28T17:41:10;93786.00;;;21.21;32.89
48035;BME280;33812;46.480;6.834;2023-02-28T17:45:14;93785.66;;;21.19;33.31
48035;BME280;33812;46.480;6.834;2023-02-28T17:49:16;93776.91;;;21.21;33.31
48035;BME280;33812;46.480;6.834;2023-02-28T17:53:18;93785.66;;;21.19;33.01
48035;BME280;33812;46.480;6.834;2023-02-28T17:57:23;93786.44;;;21.20;32.92
48035;BME280;33812;46.480;6.834;2023-02-28T18:01:26;93793.50;;;21.21;33.28
48035;BME280;33812;46.480;6.834;2023-02-28T18:05:28;93783.75;;;21.16;33.31
48035;BME280;33812;46.480;6.834;2023-02-28T18:09:31;93783.66;;;21.20;33.29
48035;BME280;33812;46.480;6.834;2023-02-28T18:13:33;93785.66;;;21.19;33.38
48035;BME280;33812;46.480;6.834;2023-02-28T18:17:36;93795.94;;;21.19;33.41
48035;BME280;33812;46.480;6.834;2023-02-28T18:21:38;93786.44;;;21.20;33.33
48035;BME280;33812;46.480;6.834;2023-02-28T18:25:39;93791.50;;;21.21;33.15
48035;BME280;33812;46.480;6.834;2023-02-28T18:29:41;93786.88;;;21.18;32.89
48035;BME280;33812;46.480;6.834;2023-02-28T18:33:47;93791.19;;;21.19;32.51
48035;BME280;33812;46.480;6.834;2023-02-28T18:37:50;93798.38;;;21.17;32.07
48035;BME280;33812;46.480;6.834;2023-02-28T18:41:51;93795.16;;;21.18;32.34
48035;BME280;33812;46.480;6.834;2023-02-28T18:45:53;93802.22;;;21.19;33.09
48035;BME280;33812;46.480;6.834;2023-02-28T18:49:58;93801.38;;;21.22;33.46
48035;BME280;33812;46.480;6.834;2023-02-28T18:54:00;93800.69;;;21.18;34.20
48035;BME280;33812;46.480;6.834;2023-02-28T18:58:03;93800.16;;;21.23;34.63
48035;BME280;33812;46.480;6.834;2023-02-28T19:02:05;93791.06;;;21.23;34.12
48035;BME280;33812;46.480;6.834;2023-02-28T19:06:08;93808.78;;;21.25;34.43
48035;BME280;33812;46.480;6.834;2023-02-28T19:10:12;93810.88;;;21.21;34.25
48035;BME280;33812;46.480;6.834;2023-02-28T19:14:14;93818.72;;;21.23;33.72
48035;BME280;33812;46.480;6.834;2023-02-28T19:18:16;93806.91;;;21.22;34.29
48035;BME280;33812;46.480;6.834;2023-02-28T19:22:20;93818.63;;;21.26;34.39
48035;BME280;33812;46.480;6.834;2023-02-28T19:26:23;93812.44;;;21.22;34.61
48035;BME280;33812;46.480;6.834;2023-02-28T19:30:25;93819.50;;;21.23;35.22
48035;BME280;33812;46.480;6.834;2023-02-28T19:34:27;93806.13;;;21.22;35.12
48035;BME280;33812;46.480;6.834;2023-02-28T19:38:30;93811.66;;;21.22;34.99
48035;BME280;33812;46.480;6.834;2023-02-28T19:42:33;93797.94;;;21.18;34.48
48035;BME280;33812;46.480;6.834;2023-02-28T19:46:35;93796.25;;;21.21;37.61
48035;BME280;33812;46.480;6.834;2023-02-28T19:50:37;93799.81;;;21.21;36.96
48035;BME280;33812;46.480;6.834;2023-02-28T19:54:42;93799.81;;;21.21;37.23
48035;BME280;33812;46.480;6.834;2023-02-28T19:58:43;93803.69;;;21.24;37.49
48035;BME280;33812;46.480;6.834;2023-02-28T20:02:45;93793.50;;;21.21;37.97
48035;BME280;33812;46.480;6.834;2023-02-28T20:06:47;93799.81;;;21.21;37.43
48035;BME280;33812;46.480;6.834;2023-02-28T20:10:51;93797.84;;;21.22;38.23
48035;BME280;33812;46.480;6.834;2023-02-28T20:14:54;93798.28;;;21.20;38.11
48035;BME280;33812;46.480;6.834;2023-02-28T20:18:56;93800.69;;;21.18;38.03
48035;BME280;33812;46.480;6.834;2023-02-28T20:22:58;93795.16;;;21.18;37.99
48035;BME280;33812;46.480;6.834;2023-02-28T20:27:01;93802.31;;;21.16;37.56
48035;BME280;33812;46.480;6.834;2023-02-28T20:31:15;93801.47;;;21.19;37.66
48035;BME280;33812;46.480;6.834;2023-02-28T20:35:17;93806.22;;;21.18;37.49
48035;BME280;33812;46.480;6.834;2023-02-28T20:39:21;93804.56;;;21.21;36.92
48035;BME280;33812;46.480;6.834;2023-02-28T20:43:24;93802.22;;;21.19;37.33
48035;BME280;33812;46.480;6.834;2023-02-28T20:47:28;93804.25;;;21.19;36.93
48035;BME280;33812;46.480;6.834;2023-02-28T20:51:31;93810.53;;;21.19;36.93
48035;BME280;33812;46.480;6.834;2023-02-28T20:55:33;93803.00;;;21.20;37.26
48035;BME280;33812;46.480;6.834;2023-02-28T20:59:36;93814.06;;;21.20;36.84
48035;BME280;33812;46.480;6.834;2023-02-28T21:03:39;93812.97;;;21.17;36.95
48035;BME280;33812;46.480;6.834;2023-02-28T21:07:41;93819.25;;;21.18;36.64
48035;BME280;33812;46.480;6.834;2023-02-28T21:11:44;93814.16;;;21.16;36.34
48035;BME280;33812;46.480;6.834;2023-02-28T21:15:47;93815.72;;;21.17;36.39
48035;BME280;33812;46.480;6.834;2023-02-28T21:19:49;93814.16;;;21.16;35.81
48035;BME280;33812;46.480;6.834;2023-02-28T21:23:51;93811.06;;;21.14;34.35
48035;BME280;33812;46.480;6.834;2023-02-28T21:27:53;93813.81;;;21.14;34.39
48035;BME280;33812;46.480;6.834;2023-02-28T21:31:58;93816.59;;;21.14;34.38
48035;BME280;33812;46.480;6.834;2023-02-28T21:36:01;93812.28;;;21.13;34.80
48035;BME280;33812;46.480;6.834;2023-02-28T21:40:04;93811.84;;;21.14;34.52
48035;BME280;33812;46.480;6.834;2023-02-28T21:44:08;93811.50;;;21.12;34.35
48035;BME280;33812;46.480;6.834;2023-02-28T21:48:18;93812.28;;;21.13;34.32
48035;BME280;33812;46.480;6.834;2023-02-28T21:52:20;93815.81;;;21.13;34.21
48035;BME280;33812;46.480;6.834;2023-02-28T21:56:26;93811.16;;;21.10;34.25
48035;BME280;33812;46.480;6.834;2023-02-28T22:00:28;93815.94;;;21.10;34.08
48035;BME280;33812;46.480;6.834;2023-02-28T22:04:32;93816.69;;;21.10;34.07